BEL6QG LGRP-EBBR
Flight info
| Callsign | BEL6QG |
|---|---|
| Flight time | N/A |
| Altitude | 38000 |
| Route | VANES M601 GILOS UM601 ADESO UN133 RIGRO DCT DISOR DCT LONTA UL608 DOLEV DCT OSLUD DCT RUDAR DCT SOLGU DCT NAVSU DCT NEMEK DCT VEKEN DCT UMVEG DCT KPT DCT KUNOD L608 TEDGO DCT SUNEG L608 MISGI Z104 GESLO N852 LNO |
| Aircraft | A20N/M-DE3FGHIJ1LORVWY/HB1G1 |
Departure
| Time | 2026-04-27 14:50 |
|---|---|
| Airport | Rhodes International Airport "Diagoras" (LGRP) |
Arrival
| Time | N/A |
|---|---|
| Airport | Brussels Airport (EBBR) |
| Time | Latitude | Longitude | Altitude | Speed | Heading |
|---|---|---|---|---|---|
| 2026-04-27 14:37 | 36.40391 | 28.09235 | 39 ft | 0 kts | 160° |
| 2026-04-27 14:38 | 36.40391 | 28.09234 | 38 ft | 0 kts | 160° |
| 2026-04-27 14:43 | 36.40392 | 28.09234 | 38 ft | 1 kts | 160° |
| 2026-04-27 14:43 | 36.40402 | 28.09230 | 38 ft | 2 kts | 159° |
| 2026-04-27 14:44 | 36.40448 | 28.09173 | 34 ft | 1 kts | 74° |
| 2026-04-27 14:45 | 36.40446 | 28.09165 | 34 ft | 1 kts | 68° |
| 2026-04-27 14:45 | 36.40445 | 28.09163 | 34 ft | 0 kts | 69° |
| 2026-04-27 14:46 | 36.40459 | 28.09208 | 34 ft | 10 kts | 70° |
| 2026-04-27 14:47 | 36.40498 | 28.09327 | 33 ft | 17 kts | 56° |
| 2026-04-27 14:47 | 36.40586 | 28.09427 | 31 ft | 17 kts | 54° |
| 2026-04-27 14:47 | 36.40634 | 28.09575 | 30 ft | 19 kts | 70° |
| 2026-04-27 14:47 | 36.40681 | 28.09736 | 27 ft | 20 kts | 70° |
| 2026-04-27 14:48 | 36.40730 | 28.09904 | 26 ft | 21 kts | 69° |
| 2026-04-27 14:48 | 36.40832 | 28.10257 | 27 ft | 21 kts | 71° |
| 2026-04-27 14:48 | 36.40884 | 28.10419 | 29 ft | 18 kts | 49° |
| 2026-04-27 14:49 | 36.40983 | 28.10397 | 28 ft | 15 kts | 303° |
| 2026-04-27 14:49 | 36.41014 | 28.10262 | 25 ft | 17 kts | 260° |
| 2026-04-27 14:49 | 36.40911 | 28.09903 | 24 ft | 77 kts | 249° |
| 2026-04-27 14:49 | 36.40653 | 28.09024 | 28 ft | 135 kts | 250° |
| 2026-04-27 14:50 | 36.40289 | 28.07785 | 233 ft | 161 kts | 250° |
| 2026-04-27 14:50 | 36.39933 | 28.06468 | 773 ft | 165 kts | 257° |
| 2026-04-27 14:50 | 36.39768 | 28.05061 | 1382 ft | 167 kts | 266° |
| 2026-04-27 14:50 | 36.39663 | 28.03625 | 1935 ft | 173 kts | 268° |
| 2026-04-27 14:51 | 36.39564 | 28.02075 | 2349 ft | 189 kts | 268° |
| 2026-04-27 14:51 | 36.39451 | 28.00392 | 2767 ft | 205 kts | 267° |
| 2026-04-27 14:51 | 36.39320 | 27.98514 | 3114 ft | 229 kts | 266° |
| 2026-04-27 14:51 | 36.39225 | 27.97188 | 3423 ft | 241 kts | 266° |
| 2026-04-27 14:52 | 36.39010 | 27.94276 | 4094 ft | 264 kts | 266° |
| 2026-04-27 14:52 | 36.38836 | 27.91974 | 4770 ft | 274 kts | 266° |
| 2026-04-27 14:52 | 36.38718 | 27.90417 | 5332 ft | 276 kts | 266° |
| 2026-04-27 14:52 | 36.38481 | 27.87270 | 6453 ft | 279 kts | 266° |
| 2026-04-27 14:53 | 36.38397 | 27.84868 | 7263 ft | 282 kts | 271° |
| 2026-04-27 14:53 | 36.38415 | 27.82428 | 8076 ft | 284 kts | 272° |
| 2026-04-27 14:53 | 36.38435 | 27.80801 | 8589 ft | 286 kts | 272° |
| 2026-04-27 14:53 | 36.38474 | 27.77510 | 9660 ft | 290 kts | 272° |
| 2026-04-27 14:54 | 36.38508 | 27.75015 | 10392 ft | 293 kts | 273° |
| 2026-04-27 14:54 | 36.38651 | 27.72431 | 10806 ft | 308 kts | 277° |
| 2026-04-27 14:54 | 36.38956 | 27.69727 | 11152 ft | 325 kts | 280° |
| 2026-04-27 14:54 | 36.39314 | 27.66921 | 11592 ft | 338 kts | 280° |
| 2026-04-27 14:55 | 36.39687 | 27.64010 | 12281 ft | 342 kts | 280° |
| 2026-04-27 14:55 | 36.40057 | 27.61101 | 13022 ft | 344 kts | 280° |
| 2026-04-27 14:55 | 36.40426 | 27.58175 | 13740 ft | 346 kts | 280° |
| 2026-04-27 14:55 | 36.40794 | 27.55247 | 14427 ft | 348 kts | 280° |
| 2026-04-27 14:56 | 36.41165 | 27.52275 | 15090 ft | 351 kts | 280° |
| 2026-04-27 14:56 | 36.41540 | 27.49271 | 15753 ft | 354 kts | 281° |
| 2026-04-27 14:56 | 36.41915 | 27.46265 | 16399 ft | 356 kts | 281° |
| 2026-04-27 14:56 | 36.42287 | 27.43260 | 17034 ft | 358 kts | 281° |
| 2026-04-27 14:57 | 36.42667 | 27.40185 | 17661 ft | 361 kts | 281° |
| 2026-04-27 14:57 | 36.43048 | 27.37102 | 18268 ft | 363 kts | 281° |
| 2026-04-27 14:57 | 36.43430 | 27.34009 | 18868 ft | 366 kts | 281° |
| 2026-04-27 14:57 | 36.43812 | 27.30897 | 19442 ft | 368 kts | 280° |
| 2026-04-27 14:58 | 36.44201 | 27.27721 | 20017 ft | 371 kts | 280° |
| 2026-04-27 14:58 | 36.44587 | 27.24556 | 20596 ft | 373 kts | 280° |
| 2026-04-27 14:58 | 36.44971 | 27.21392 | 21137 ft | 375 kts | 280° |
| 2026-04-27 14:58 | 36.45359 | 27.18195 | 21670 ft | 378 kts | 280° |
| 2026-04-27 14:59 | 36.45748 | 27.14975 | 22193 ft | 380 kts | 280° |
| 2026-04-27 14:59 | 36.46144 | 27.11700 | 22721 ft | 383 kts | 280° |
| 2026-04-27 14:59 | 36.46538 | 27.08440 | 23234 ft | 385 kts | 280° |
| 2026-04-27 14:59 | 36.46938 | 27.05136 | 23747 ft | 387 kts | 280° |
| 2026-04-27 15:00 | 36.47205 | 27.02952 | 24077 ft | 388 kts | 280° |
| 2026-04-27 15:00 | 36.47748 | 26.98515 | 24693 ft | 391 kts | 280° |
| 2026-04-27 15:00 | 36.48157 | 26.95155 | 25117 ft | 394 kts | 280° |
| 2026-04-27 15:00 | 36.48292 | 26.94048 | 25248 ft | 395 kts | 280° |
| 2026-04-27 15:01 | 36.48975 | 26.88410 | 25906 ft | 400 kts | 280° |
| 2026-04-27 15:01 | 36.49387 | 26.84976 | 26298 ft | 402 kts | 280° |
| 2026-04-27 15:01 | 36.49795 | 26.81560 | 26673 ft | 405 kts | 279° |
| 2026-04-27 15:01 | 36.50206 | 26.78089 | 27038 ft | 407 kts | 279° |
| 2026-04-27 15:02 | 36.50621 | 26.74570 | 27386 ft | 410 kts | 279° |
| 2026-04-27 15:02 | 36.51031 | 26.71075 | 27730 ft | 412 kts | 279° |
| 2026-04-27 15:02 | 36.51442 | 26.67556 | 28073 ft | 414 kts | 279° |
| 2026-04-27 15:02 | 36.51854 | 26.64030 | 28414 ft | 416 kts | 279° |
| 2026-04-27 15:03 | 36.52272 | 26.60461 | 28746 ft | 418 kts | 279° |
| 2026-04-27 15:03 | 36.52847 | 26.56937 | 29032 ft | 419 kts | 289° |
| 2026-04-27 15:03 | 36.54058 | 26.53655 | 29349 ft | 420 kts | 302° |
| 2026-04-27 15:03 | 36.55843 | 26.50803 | 29632 ft | 422 kts | 314° |
| 2026-04-27 15:04 | 36.58147 | 26.48492 | 29902 ft | 426 kts | 327° |
| 2026-04-27 15:04 | 36.60803 | 26.46777 | 30190 ft | 429 kts | 333° |
| 2026-04-27 15:04 | 36.63516 | 26.45197 | 30439 ft | 431 kts | 334° |
| 2026-04-27 15:04 | 36.66221 | 26.43635 | 30703 ft | 433 kts | 334° |
| 2026-04-27 15:05 | 36.68972 | 26.42041 | 31053 ft | 432 kts | 334° |
| 2026-04-27 15:05 | 36.71677 | 26.40467 | 31409 ft | 431 kts | 334° |
| 2026-04-27 15:05 | 36.74382 | 26.38884 | 31748 ft | 430 kts | 334° |
| 2026-04-27 15:05 | 36.77095 | 26.37293 | 32060 ft | 429 kts | 334° |
| 2026-04-27 15:06 | 36.79757 | 26.35729 | 32363 ft | 429 kts | 334° |
| 2026-04-27 15:06 | 36.82451 | 26.34140 | 32680 ft | 427 kts | 333° |
| 2026-04-27 15:06 | 36.85138 | 26.32542 | 32981 ft | 426 kts | 333° |
| 2026-04-27 15:06 | 36.87826 | 26.30943 | 33291 ft | 425 kts | 333° |
| 2026-04-27 15:07 | 36.90482 | 26.29367 | 33576 ft | 424 kts | 333° |
| 2026-04-27 15:07 | 36.93163 | 26.27781 | 33854 ft | 424 kts | 333° |
| 2026-04-27 15:07 | 36.95809 | 26.26216 | 34109 ft | 423 kts | 333° |
| 2026-04-27 15:07 | 36.98475 | 26.24639 | 34328 ft | 423 kts | 333° |
| 2026-04-27 15:08 | 37.01130 | 26.23039 | 34516 ft | 423 kts | 333° |
| 2026-04-27 15:08 | 37.03780 | 26.21426 | 34709 ft | 423 kts | 333° |
| 2026-04-27 15:08 | 37.06415 | 26.19817 | 34898 ft | 423 kts | 333° |
| 2026-04-27 15:08 | 37.09054 | 26.18205 | 35091 ft | 422 kts | 333° |
| 2026-04-27 15:09 | 37.11692 | 26.16596 | 35280 ft | 422 kts | 333° |
| 2026-04-27 15:09 | 37.14348 | 26.14981 | 35471 ft | 421 kts | 332° |
| 2026-04-27 15:09 | 37.16974 | 26.13381 | 35665 ft | 420 kts | 332° |
| 2026-04-27 15:09 | 37.19601 | 26.11777 | 35846 ft | 419 kts | 332° |
| 2026-04-27 15:10 | 37.22233 | 26.10167 | 36015 ft | 419 kts | 332° |
| 2026-04-27 15:10 | 37.24818 | 26.08583 | 36208 ft | 418 kts | 332° |
| 2026-04-27 15:10 | 37.27429 | 26.06981 | 36422 ft | 417 kts | 332° |
| 2026-04-27 15:10 | 37.30066 | 26.05361 | 36637 ft | 417 kts | 332° |
| 2026-04-27 15:11 | 37.32642 | 26.03777 | 36830 ft | 416 kts | 332° |
| 2026-04-27 15:11 | 37.35273 | 26.02157 | 37030 ft | 416 kts | 332° |
| 2026-04-27 15:11 | 37.37851 | 26.00568 | 37209 ft | 415 kts | 332° |
| 2026-04-27 15:11 | 37.40437 | 25.98972 | 37371 ft | 415 kts | 332° |
| 2026-04-27 15:12 | 37.43045 | 25.97361 | 37527 ft | 415 kts | 332° |
| 2026-04-27 15:12 | 37.45622 | 25.95768 | 37670 ft | 415 kts | 332° |
| 2026-04-27 15:12 | 37.48225 | 25.94156 | 37820 ft | 415 kts | 332° |
| 2026-04-27 15:12 | 37.50782 | 25.92572 | 37970 ft | 414 kts | 332° |
| 2026-04-27 15:13 | 37.55971 | 25.89357 | 37996 ft | 415 kts | 332° |
| 2026-04-27 15:13 | 37.61031 | 25.85868 | 38004 ft | 414 kts | 326° |
| 2026-04-27 15:14 | 37.65921 | 25.81984 | 38012 ft | 414 kts | 326° |
| 2026-04-27 15:14 | 37.70773 | 25.78088 | 38021 ft | 414 kts | 326° |
| 2026-04-27 15:15 | 37.75650 | 25.74167 | 38018 ft | 414 kts | 326° |
| 2026-04-27 15:15 | 37.80500 | 25.70260 | 38024 ft | 413 kts | 326° |
| 2026-04-27 15:16 | 37.85331 | 25.66363 | 38034 ft | 413 kts | 326° |
| 2026-04-27 15:16 | 37.90181 | 25.62447 | 38026 ft | 413 kts | 326° |
| 2026-04-27 15:17 | 37.95040 | 25.58516 | 38033 ft | 414 kts | 326° |
| 2026-04-27 15:17 | 37.99888 | 25.54589 | 38033 ft | 414 kts | 326° |
| 2026-04-27 15:18 | 38.04701 | 25.50686 | 38035 ft | 414 kts | 326° |
| 2026-04-27 15:18 | 38.09550 | 25.46747 | 38047 ft | 414 kts | 326° |
| 2026-04-27 15:19 | 38.14402 | 25.42816 | 38048 ft | 414 kts | 326° |
| 2026-04-27 15:19 | 38.18448 | 25.39534 | 38059 ft | 413 kts | 326° |
| 2026-04-27 15:21 | 38.33531 | 25.27171 | 38068 ft | 412 kts | 324° |
| 2026-04-27 15:21 | 38.38356 | 25.23204 | 38076 ft | 412 kts | 324° |
| 2026-04-27 15:22 | 38.43189 | 25.19228 | 38080 ft | 412 kts | 324° |
| 2026-04-27 15:22 | 38.47978 | 25.15284 | 38090 ft | 412 kts | 325° |
| 2026-04-27 15:23 | 38.52797 | 25.11310 | 38095 ft | 411 kts | 325° |
| 2026-04-27 15:23 | 38.57571 | 25.07368 | 38092 ft | 411 kts | 324° |
| 2026-04-27 15:24 | 38.62393 | 25.03379 | 38095 ft | 411 kts | 324° |
| 2026-04-27 15:24 | 38.67168 | 24.99423 | 38095 ft | 411 kts | 324° |
| 2026-04-27 15:25 | 38.71980 | 24.95430 | 38107 ft | 411 kts | 324° |
| 2026-04-27 15:25 | 38.76758 | 24.91458 | 38107 ft | 411 kts | 324° |
| 2026-04-27 15:26 | 38.81570 | 24.87451 | 38110 ft | 410 kts | 324° |
| 2026-04-27 15:26 | 38.86326 | 24.83485 | 38107 ft | 410 kts | 324° |
| 2026-04-27 15:27 | 38.91100 | 24.79498 | 38105 ft | 410 kts | 324° |
| 2026-04-27 15:27 | 38.95883 | 24.75497 | 38112 ft | 410 kts | 324° |
| 2026-04-27 15:28 | 39.00648 | 24.71503 | 38116 ft | 411 kts | 324° |
| 2026-04-27 15:28 | 39.05440 | 24.67480 | 38119 ft | 411 kts | 324° |
| 2026-04-27 15:29 | 39.10239 | 24.63444 | 38118 ft | 411 kts | 324° |
| 2026-04-27 15:29 | 39.14998 | 24.59459 | 38119 ft | 410 kts | 324° |
| 2026-04-27 15:30 | 39.19775 | 24.55447 | 38125 ft | 410 kts | 324° |
| 2026-04-27 15:30 | 39.24542 | 24.51427 | 38130 ft | 410 kts | 324° |
| 2026-04-27 15:31 | 39.29325 | 24.47382 | 38130 ft | 410 kts | 324° |
| 2026-04-27 15:31 | 39.34086 | 24.43346 | 38133 ft | 411 kts | 324° |
| 2026-04-27 15:32 | 39.38853 | 24.39299 | 38132 ft | 410 kts | 324° |
| 2026-04-27 15:32 | 39.43602 | 24.35259 | 38135 ft | 409 kts | 324° |
| 2026-04-27 15:33 | 39.48371 | 24.31175 | 38134 ft | 409 kts | 324° |
| 2026-04-27 15:33 | 39.53091 | 24.27127 | 38138 ft | 409 kts | 324° |
| 2026-04-27 15:34 | 39.57827 | 24.23071 | 38140 ft | 409 kts | 324° |
| 2026-04-27 15:34 | 39.62574 | 24.19004 | 38141 ft | 409 kts | 324° |
| 2026-04-27 15:35 | 39.67315 | 24.14936 | 38141 ft | 409 kts | 324° |
| 2026-04-27 15:35 | 39.72050 | 24.10867 | 38146 ft | 408 kts | 324° |
| 2026-04-27 15:36 | 39.76776 | 24.06799 | 38146 ft | 408 kts | 324° |
| 2026-04-27 15:36 | 39.81503 | 24.02725 | 38146 ft | 408 kts | 324° |
| 2026-04-27 15:37 | 39.86220 | 23.98653 | 38146 ft | 408 kts | 324° |
| 2026-04-27 15:37 | 39.90922 | 23.94588 | 38147 ft | 408 kts | 324° |
| 2026-04-27 15:38 | 39.95647 | 23.90494 | 38147 ft | 407 kts | 324° |
| 2026-04-27 15:38 | 40.00346 | 23.86414 | 38148 ft | 406 kts | 324° |
| 2026-04-27 15:39 | 40.05065 | 23.82312 | 38148 ft | 406 kts | 324° |
| 2026-04-27 15:39 | 40.09763 | 23.78222 | 38152 ft | 406 kts | 324° |
| 2026-04-27 15:40 | 40.14458 | 23.74149 | 38150 ft | 406 kts | 324° |
| 2026-04-27 15:40 | 40.19149 | 23.70069 | 38149 ft | 406 kts | 324° |
| 2026-04-27 15:41 | 40.23824 | 23.65984 | 38149 ft | 405 kts | 324° |
| 2026-04-27 15:41 | 40.28502 | 23.61886 | 38150 ft | 405 kts | 324° |
| 2026-04-27 15:42 | 40.33187 | 23.57773 | 38154 ft | 405 kts | 324° |
| 2026-04-27 15:42 | 40.37864 | 23.53661 | 38142 ft | 404 kts | 323° |
| 2026-04-27 15:43 | 40.42519 | 23.49560 | 38153 ft | 404 kts | 324° |
| 2026-04-27 15:43 | 40.47158 | 23.45463 | 38151 ft | 404 kts | 324° |
| 2026-04-27 15:44 | 40.51821 | 23.41340 | 38151 ft | 403 kts | 324° |
| 2026-04-27 15:44 | 40.56461 | 23.37230 | 38152 ft | 403 kts | 324° |
| 2026-04-27 15:45 | 40.61076 | 23.33128 | 38151 ft | 403 kts | 323° |
| 2026-04-27 15:45 | 40.65700 | 23.28993 | 38157 ft | 402 kts | 323° |
| 2026-04-27 15:46 | 40.70325 | 23.24865 | 38156 ft | 402 kts | 323° |
| 2026-04-27 15:46 | 40.74963 | 23.20724 | 38162 ft | 402 kts | 323° |
| 2026-04-27 15:47 | 40.79572 | 23.16606 | 38160 ft | 402 kts | 323° |
| 2026-04-27 15:47 | 40.84213 | 23.12454 | 38168 ft | 401 kts | 323° |
| 2026-04-27 15:48 | 40.88800 | 23.08341 | 38167 ft | 400 kts | 323° |
| 2026-04-27 15:49 | 40.95712 | 23.02132 | 38170 ft | 401 kts | 323° |
| 2026-04-27 15:49 | 41.00297 | 22.98003 | 38172 ft | 400 kts | 323° |
| 2026-04-27 15:50 | 41.04892 | 22.93857 | 38170 ft | 400 kts | 323° |
| 2026-04-27 15:50 | 41.09472 | 22.89718 | 38162 ft | 400 kts | 323° |
| 2026-04-27 15:51 | 41.14069 | 22.85573 | 38159 ft | 400 kts | 323° |
| 2026-04-27 15:51 | 41.18666 | 22.81413 | 38154 ft | 400 kts | 323° |
| 2026-04-27 15:52 | 41.23182 | 22.77046 | 38150 ft | 400 kts | 319° |
| 2026-04-27 15:52 | 41.27278 | 22.72133 | 38150 ft | 398 kts | 313° |
| 2026-04-27 15:53 | 41.31030 | 22.66771 | 38142 ft | 397 kts | 311° |
| 2026-04-27 15:53 | 41.34742 | 22.61332 | 38146 ft | 396 kts | 311° |
| 2026-04-27 15:54 | 41.38421 | 22.55932 | 38143 ft | 397 kts | 311° |
| 2026-04-27 15:54 | 41.42142 | 22.50463 | 38149 ft | 397 kts | 311° |
| 2026-04-27 15:55 | 41.45834 | 22.45029 | 38144 ft | 397 kts | 311° |
| 2026-04-27 15:55 | 41.49524 | 22.39583 | 38145 ft | 397 kts | 311° |
| 2026-04-27 15:56 | 41.53241 | 22.34087 | 38140 ft | 397 kts | 310° |
| 2026-04-27 15:56 | 41.56914 | 22.28623 | 38139 ft | 397 kts | 310° |
| 2026-04-27 15:57 | 41.60587 | 22.23161 | 38130 ft | 397 kts | 310° |
| 2026-04-27 15:57 | 41.63669 | 22.18578 | 38128 ft | 397 kts | 310° |